CW2758 Weather Reports


Display with metric or nautical units.
time (UTC)temp
F
wind
direction
speed
MPH
gust
MPH
rain 1hr
in
rain 24hr
in
rain mn
in
humidity
%
barometer
mb
20181016071522 32 234 1.0 3.0 0.00 0.08 0.00 91 1025.7
20181016070001 33 234 2.0 3.0 0.00 0.08 0.00 90 1025.7
20181016064606 33 234 2.0 4.0 0.00 0.08 0.00 90 1025.6
20181016063118 34 233 2.0 5.0 0.00 0.08 0.00 89 1025.7
20181016061731 34 227 2.0 9.0 0.00 0.08 0.00 88 1025.8
20181016060238 34 232 2.0 8.0 0.00 0.08 0.00 87 1025.8
20181016054644 35 253 3.0 6.0 0.00 0.08 0.00 87 1025.8
20181016053153 35 229 2.0 5.0 0.00 0.08 0.00 86 1025.8
20181016051633 35 214 2.0 6.0 0.00 0.08 0.00 85 1025.8
20181016050100 36 254 2.0 4.0 0.00 0.08 0.08 84 1025.7
20181016044601 36 245 2.0 8.0 0.00 0.08 0.08 84 1025.9
20181016043117 36 245 2.0 5.0 0.00 0.08 0.08 83 1026.1
20181016041551 36 233 2.0 5.0 0.00 0.08 0.08 83 1026.1
20181016040136 36 235 1.0 6.0 0.00 0.08 0.08 83 1026.0
20181016034725 36 257 2.0 4.0 0.00 0.08 0.08 84 1026.1
20181016033121 35 257 0.0 1.0 0.00 0.08 0.08 85 1026.2
20181016031653 35 257 0.0 3.0 0.00 0.08 0.08 84 1026.3
20181016030102 35 257 0.0 2.0 0.00 0.08 0.08 83 1026.4
20181016024626 36 257 1.0 3.0 0.00 0.08 0.08 82 1026.5
20181016023215 35 257 0.0 0.0 0.00 0.08 0.08 83 1026.6
20181016021601 36 257 0.0 1.0 0.00 0.08 0.08 80 1026.6
20181016020122 37 257 2.0 3.0 0.00 0.08 0.08 78 1026.8
20181016014629 37 257 0.0 2.0 0.00 0.08 0.08 78 1026.7
20181016013113 37 257 0.0 2.0 0.00 0.08 0.08 76 1026.6
20181016011617 38 257 0.0 2.0 0.00 0.08 0.08 74 1026.7
20181016010055 39 257 1.0 3.0 0.00 0.08 0.08 72 1026.7
20181016004600 39 256 1.0 3.0 0.00 0.08 0.08 72 1026.7
20181016003222 39 256 0.0 2.0 0.00 0.08 0.08 73 1026.6
20181016001649 39 256 2.0 4.0 0.00 0.08 0.08 71 1026.4
20181016000107 40 256 1.0 3.0 0.00 0.10 0.08 69 1026.4
20181015234549 42 257 1.0 3.0 0.00 0.10 0.08 67 1026.3
20181015233103 43 257 2.0 4.0 0.00 0.10 0.08 65 1026.4
20181015231548 44 257 2.0 6.0 0.00 0.10 0.08 63 1026.4
20181015230054 45 279 2.0 5.0 0.00 0.10 0.08 60 1026.3
20181015224619 46 279 2.0 8.0 0.00 0.10 0.08 57 1026.2
20181015223126 46 264 3.0 9.0 0.00 0.10 0.08 57 1026.1
20181015221543 46 265 3.0 9.0 0.00 0.10 0.08 55 1026.1
20181015220056 47 235 4.0 11.0 0.00 0.10 0.08 56 1026.1
20181015214608 47 277 5.0 9.0 0.00 0.10 0.08 55 1026.2
20181015213045 47 277 2.0 13.0 0.00 0.10 0.08 53 1026.3
20181015211552 48 278 0.0 11.0 0.00 0.10 0.08 53 1026.1
20181015210054 48 299 2.0 10.0 0.00 0.10 0.08 51 1026.3
20181015204535 48 251 3.0 8.0 0.00 0.10 0.08 51 1026.2
20181015203053 50 251 3.0 13.0 0.00 0.10 0.08 51 1026.1
20181015201622 50 276 1.0 5.0 0.00 0.10 0.08 51 1026.2
20181015200117 49 260 0.0 8.0 0.00 0.10 0.08 50 1026.1
20181015194607 49 299 0.0 11.0 0.00 0.10 0.08 49 1026.0
20181015193045 49 285 1.0 10.0 0.00 0.10 0.08 52 1025.9
20181015191540 49 287 0.0 10.0 0.00 0.10 0.08 50 1026.2
20181015190026 49 297 0.0 8.0 0.00 0.10 0.08 52 1026.2
20181015184531 49 286 1.0 10.0 0.00 0.10 0.08 51 1026.3
20181015181602 48 315 1.0 8.0 0.00 0.10 0.08 54 1026.6
20181015180050 47 275 1.0 10.0 0.00 0.10 0.08 56 1026.8
20181015174530 47 308 1.0 6.0 0.00 0.10 0.08 58 1027.0
20181015173023 46 298 1.0 9.0 0.00 0.10 0.08 56 1027.1
20181015171514 46 296 1.0 8.0 0.00 0.10 0.08 59 1026.9
20181015170016 45 306 0.0 9.0 0.00 0.10 0.08 60 1026.8
20181015164536 45 350 2.0 9.0 0.00 0.10 0.08 59 1026.9
20181015163011 44 350 6.0 14.0 0.00 0.10 0.08 58 1026.9
20181015161520 44 296 0.0 5.0 0.00 0.10 0.08 63 1027.0
20181015160005 42 317 1.0 11.0 0.00 0.10 0.08 65 1026.9
20181015153058 42 337 2.0 9.0 0.00 0.10 0.08 68 1026.8
20181015151706 40 350 2.0 14.0 0.00 0.10 0.08 69 1026.5
20181015150141 40 325 2.0 11.0 0.01 0.10 0.08 72 1026.4
20181015144632 39 6 4.0 12.0 0.02 0.10 0.08 75 1025.9
20181015143116 39 331 2.0 10.0 0.03 0.10 0.08 80 1026.2
20181015141622 38 339 0.0 4.0 0.04 0.10 0.08 85 1026.1
20181015140051 38 333 1.0 6.0 0.04 0.09 0.07 89 1026.2
20181015134558 37 332 0.0 3.0 0.04 0.08 0.06 92 1026.0
20181015133126 36 6 0.0 4.0 0.03 0.07 0.05 94 1025.7
20181015131600 35 33 0.0 2.0 0.01 0.05 0.03 95 1025.4
20181015130102 34 33 0.0 2.0 0.01 0.05 0.03 96 1025.0
20181015124539 33 355 0.0 1.0 0.00 0.04 0.02 96 1024.9
20181015123047 33 355 0.0 2.0 0.00 0.04 0.02 96 1024.6
20181015121607 33 355 0.0 3.0 0.00 0.04 0.02 96 1024.5
20181015120032 34 322 0.0 5.0 0.00 0.04 0.02 97 1024.0
20181015114543 34 322 1.0 8.0 0.00 0.04 0.02 98 1023.8
20181015113023 34 297 1.0 3.0 0.00 0.04 0.02 98 1023.6
20181015111537 34 323 0.0 4.0 0.00 0.04 0.02 98 1023.4
20181015110030 34 314 1.0 4.0 0.01 0.04 0.02 98 1023.2
20181015104521 35 287 0.0 3.0 0.01 0.04 0.02 98 1023.1
20181015103031 35 314 0.0 6.0 0.01 0.04 0.02 99 1023.1
20181015101527 35 330 0.0 3.0 0.01 0.04 0.02 99 1022.9
20181015100021 35 303 1.0 6.0 0.01 0.03 0.01 98 1022.9
20181015094539 35 355 0.0 4.0 0.01 0.03 0.01 98 1022.9
20181015093010 35 322 0.0 5.0 0.01 0.03 0.01 98 1022.8
20181015091523 34 324 0.0 3.0 0.01 0.03 0.01 98 1022.5
20181015090026 34 322 0.0 3.0 0.00 0.02 0.00 98 1022.6
20181015084517 34 15 1.0 4.0 0.00 0.02 0.00 98 1022.3
20181015083005 34 10 0.0 4.0 0.00 0.02 0.00 98 1022.2
20181015081503 34 329 0.0 2.0 0.00 0.02 0.00 98 1022.5
20181015080004 34 329 0.0 5.0 0.00 0.02 0.00 98 1022.6
20181015074712 34 322 0.0 5.0 0.00 0.02 0.00 98 1022.4
20181015073202 34 304 0.0 3.0 0.00 0.02 0.00 98 1022.4